Time;durP1;ratioP1;P1;durP2;ratioP2;P2;SDS_P1;SDS_P2;PMS_P1;PMS_P2;Temp;Humidity;BMP_temperature;BMP_pressure;BME280_temperature;BME280_humidity;BME280_pressure;Samples;Min_cycle;Max_cycle;Signal;HPM_P1;HPM_P2
2022/06/08 00:02:10;;;;;;;55.22;27.30;;;;;;;15.92;83.71;101041.47;5072968;28;20035;-70
2022/06/08 00:04:37;;;;;;;56.53;27.67;;;;;;;15.87;83.85;101037.94;5068910;28;20032;-70
2022/06/08 00:07:03;;;;;;;56.97;28.13;;;;;;;15.88;83.70;101037.94;5072949;28;20032;-78
2022/06/08 00:09:28;;;;;;;57.03;28.20;;;;;;;15.86;83.64;101036.16;5069986;28;20016;-77
2022/06/08 00:11:54;;;;;;;55.58;27.85;;;;;;;15.82;83.46;101033.53;5072907;28;20569;-78
2022/06/08 00:14:19;;;;;;;58.50;28.98;;;;;;;15.77;83.24;101026.44;5069068;28;20031;-78
2022/06/08 00:16:45;;;;;;;57.92;29.02;;;;;;;15.77;83.03;101026.44;5072766;28;20118;-78
2022/06/08 00:19:10;;;;;;;59.92;30.13;;;;;;;15.76;83.48;101017.69;5067094;28;20495;-78
2022/06/08 00:21:36;;;;;;;59.40;29.73;;;;;;;15.74;83.35;101015.94;5071748;28;20103;-78
2022/06/08 00:24:01;;;;;;;59.03;29.83;;;;;;;15.73;83.62;101017.69;5071960;28;20032;-78
2022/06/08 00:26:27;;;;;;;59.78;30.15;;;;;;;15.71;83.88;101010.66;5072364;28;20063;-78
2022/06/08 00:28:53;;;;;;;65.63;31.50;;;;;;;15.68;83.94;101015.91;5068880;28;20037;-78
2022/06/08 00:31:19;;;;;;;61.80;29.42;;;;;;;15.67;84.54;101008.88;5058430;28;20029;-78
2022/06/08 00:33:45;;;;;;;59.40;30.02;;;;;;;15.67;84.50;101009.78;5071751;28;20078;-78
2022/06/08 00:36:10;;;;;;;60.85;29.33;;;;;;;15.67;84.28;101006.25;5054231;28;20024;-78
2022/06/08 00:38:35;;;;;;;65.35;30.00;;;;;;;15.64;84.11;100997.50;5063962;28;20021;-78
2022/06/08 00:41:13;;;;;;;60.40;29.80;;;;;;;15.65;83.93;100995.75;5062212;28;20056;-78
2022/06/08 00:43:39;;;;;;;56.72;29.30;;;;;;;15.63;83.71;101000.13;5067770;28;20032;-77
2022/06/08 00:46:06;;;;;;;58.67;29.83;;;;;;;15.58;84.04;100984.34;5071244;28;20479;-78
2022/06/08 00:48:38;;;;;;;58.92;29.58;;;;;;;15.59;83.81;100985.22;5071202;28;20029;-78
2022/06/08 00:51:04;;;;;;;58.63;29.45;;;;;;;15.54;84.01;100990.47;5060562;28;20029;-78
2022/06/08 00:53:40;;;;;;;55.90;28.70;;;;;;;15.55;83.16;100989.56;5053996;28;20031;-78
2022/06/08 00:56:12;;;;;;;60.70;29.98;;;;;;;15.48;83.40;100978.16;5054327;28;20047;-78
2022/06/08 00:58:38;;;;;;;61.58;29.63;;;;;;;15.44;83.55;100984.25;5071428;28;20318;-78
2022/06/08 01:01:04;;;;;;;58.97;29.83;;;;;;;15.41;83.16;100981.63;5070154;28;20230;-78
2022/06/08 01:03:29;;;;;;;56.63;29.52;;;;;;;15.39;83.47;100985.97;5071413;28;20487;-78
2022/06/08 01:06:03;;;;;;;58.25;28.83;;;;;;;15.36;83.57;100978.09;5040134;28;20020;-78
2022/06/08 01:08:35;;;;;;;60.20;29.23;;;;;;;15.33;83.71;100970.19;5063179;28;20028;-71
2022/06/08 01:11:15;;;;;;;68.10;31.88;;;;;;;15.35;83.84;100975.44;5065374;28;20078;-71
2022/06/08 01:13:42;;;;;;;64.63;31.67;;;;;;;15.33;85.51;100970.19;5055807;28;20112;-71
2022/06/08 01:16:10;;;;;;;60.97;30.42;;;;;;;15.32;84.43;100960.56;5039319;28;20020;-71
2022/06/08 01:18:35;;;;;;;57.58;30.20;;;;;;;15.31;83.87;100961.44;5063839;28;20091;-71
2022/06/08 01:21:19;;;;;;;60.58;30.10;;;;;;;15.33;83.85;100957.06;5055886;28;20036;-70
2022/06/08 01:23:49;;;;;;;59.55;29.65;;;;;;;15.29;83.75;100956.19;5063692;28;20058;-70
2022/06/08 01:26:56;;;;;;;58.80;29.23;;;;;;;15.34;83.82;100944.81;5053256;28;20488;-71
2022/06/08 01:29:27;;;;;;;61.05;29.42;;;;;;;15.26;84.17;100943.00;5024259;28;20051;-71
2022/06/08 01:32:11;;;;;;;60.83;30.50;;;;;;;15.26;83.72;100944.78;5064661;28;20020;-71
2022/06/08 01:34:45;;;;;;;59.10;29.17;;;;;;;15.24;83.92;100941.28;5050866;28;20111;-71
2022/06/08 01:37:29;;;;;;;59.65;29.42;;;;;;;15.22;84.84;100936.00;5053337;28;20049;-78
2022/06/08 01:40:26;;;;;;;67.50;30.88;;;;;;;15.24;84.30;100933.41;5057023;28;20028;-78
2022/06/08 01:42:57;;;;;;;67.03;30.90;;;;;;;15.20;84.56;100924.59;5060937;28;20028;-78
2022/06/08 01:45:55;;;;;;;70.00;31.30;;;;;;;15.22;84.11;100927.25;5060007;28;20571;-78
2022/06/08 01:48:42;;;;;;;70.10;30.58;;;;;;;15.18;84.62;100920.22;5051284;28;20040;-78
2022/06/08 01:51:13;;;;;;;64.80;31.88;;;;;;;15.17;84.69;100918.47;5040452;28;20043;-79
2022/06/08 01:53:44;;;;;;;64.93;29.98;;;;;;;15.19;84.38;100916.72;5067357;28;20043;-78
2022/06/08 01:56:24;;;;;;;64.00;30.60;;;;;;;15.20;84.88;100908.00;5069541;28;20066;-78
2022/06/08 01:59:08;;;;;;;56.90;27.10;;;;;;;15.22;84.76;100912.38;5041123;28;20040;-78
2022/06/08 02:01:53;;;;;;;54.22;26.52;;;;;;;15.24;84.43;100894.03;5050849;28;20496;-78
2022/06/08 02:04:23;;;;;;;54.17;26.98;;;;;;;15.23;84.84;100902.75;5047785;28;20028;-78
2022/06/08 02:07:13;;;;;;;55.92;27.25;;;;;;;15.21;84.49;100894.00;5050714;28;20525;-71
2022/06/08 02:09:46;;;;;;;50.45;25.85;;;;;;;15.20;84.47;100895.72;5061147;28;20041;-71
2022/06/08 02:12:13;;;;;;;54.22;25.15;;;;;;;15.18;84.62;100891.34;5049936;28;20103;-71
2022/06/08 02:14:54;;;;;;;52.25;25.88;;;;;;;15.18;84.83;100880.84;5051486;28;20035;-71
2022/06/08 02:17:32;;;;;;;54.95;26.00;;;;;;;15.17;84.71;100881.72;5068719;28;20032;-71
2022/06/08 02:20:12;;;;;;;51.47;25.23;;;;;;;15.13;83.93;100878.19;5069708;28;20028;-71
2022/06/08 02:22:50;;;;;;;46.35;23.50;;;;;;;15.09;83.90;100869.44;5049649;28;20091;-71
2022/06/08 02:25:21;;;;;;;47.47;24.27;;;;;;;15.08;83.79;100865.06;5051935;28;20146;-71
2022/06/08 02:28:19;;;;;;;47.10;23.60;;;;;;;15.11;83.59;100862.44;5061195;28;20060;-71
2022/06/08 02:30:56;;;;;;;46.65;23.30;;;;;;;15.05;83.66;100857.16;5037893;28;20044;-70
2022/06/08 02:36:23;;;;;;;43.85;22.70;;;;;;;14.99;83.52;100851.00;5070434;28;20031;-78
2022/06/08 02:38:56;;;;;;;41.10;21.20;;;;;;;14.92;83.12;100850.97;5069523;28;20039;-78
2022/06/08 02:41:26;;;;;;;45.45;22.58;;;;;;;14.87;83.29;100842.19;5058227;28;20025;-78
2022/06/08 02:43:57;;;;;;;46.90;22.30;;;;;;;14.82;83.34;100843.06;5068087;28;20404;-78
2022/06/08 02:46:41;;;;;;;42.58;21.48;;;;;;;14.76;83.80;100844.75;5065250;28;20107;-78
2022/06/08 02:49:08;;;;;;;44.45;21.40;;;;;;;14.74;83.61;100840.38;5068398;28;20036;-78
2022/06/08 02:51:33;;;;;;;43.30;21.05;;;;;;;14.72;83.78;100839.50;5062702;28;20033;-78
2022/06/08 02:54:05;;;;;;;43.95;21.27;;;;;;;14.74;84.84;100841.25;5062175;28;20113;-78
2022/06/08 02:56:47;;;;;;;42.05;19.15;;;;;;;14.76;84.58;100829.03;5060910;28;20025;-79
2022/06/08 02:59:33;;;;;;;40.85;20.60;;;;;;;14.77;84.28;100836.03;5050635;28;20036;-79
2022/06/08 03:02:06;;;;;;;37.45;18.73;;;;;;;14.74;83.78;100835.13;5062089;28;21890;-78
2022/06/08 03:04:52;;;;;;;36.35;18.75;;;;;;;14.78;83.77;100832.53;5056070;28;20017;-78
2022/06/08 03:07:23;;;;;;;36.22;19.30;;;;;;;14.72;83.89;100832.50;5063773;28;20318;-77
2022/06/08 03:09:51;;;;;;;36.45;18.83;;;;;;;14.69;83.33;100821.13;5069407;28;20498;-79
2022/06/08 03:12:32;;;;;;;34.03;18.20;;;;;;;14.69;83.62;100816.75;5074107;28;20036;-78
2022/06/08 03:15:00;;;;;;;35.00;17.42;;;;;;;14.68;83.82;100820.22;5061181;28;20037;-78
2022/06/08 03:17:30;;;;;;;35.47;18.33;;;;;;;14.65;83.59;100812.34;5052568;28;20258;-78
2022/06/08 03:19:55;;;;;;;32.95;16.90;;;;;;;14.66;83.92;100816.72;5072252;28;20042;-78
2022/06/08 03:22:21;;;;;;;35.90;18.10;;;;;;;14.67;84.87;100825.47;5054654;28;20399;-78
2022/06/08 03:24:46;;;;;;;32.65;16.73;;;;;;;14.67;85.00;100822.84;5062344;28;20032;-78
2022/06/08 03:27:12;;;;;;;29.90;15.80;;;;;;;14.68;85.67;100819.34;5072614;28;20045;-78
2022/06/08 03:29:38;;;;;;;31.75;16.33;;;;;;;14.67;85.21;100818.50;5070744;28;20049;-77
2022/06/08 03:32:04;;;;;;;28.13;16.02;;;;;;;14.67;85.38;100823.72;5067780;28;20072;-78
2022/06/08 03:34:30;;;;;;;30.73;15.60;;;;;;;14.66;85.35;100819.34;5062500;28;20040;-78
2022/06/08 03:36:55;;;;;;;27.50;15.32;;;;;;;14.68;85.36;100817.59;5073826;28;20129;-78
2022/06/08 03:39:21;;;;;;;28.35;14.52;;;;;;;14.68;85.71;100817.59;5063069;28;20039;-78
2022/06/08 03:41:46;;;;;;;29.20;14.75;;;;;;;14.68;86.35;100814.97;5068818;28;20059;-78
2022/06/08 03:44:12;;;;;;;28.90;14.80;;;;;;;14.71;86.31;100829.84;5059510;28;20029;-78
2022/06/08 03:46:43;;;;;;;27.10;15.23;;;;;;;14.71;87.37;100820.22;5062991;28;20033;-78
2022/06/08 03:49:09;;;;;;;28.23;15.13;;;;;;;14.72;87.23;100827.25;5067562;28;20025;-78
2022/06/08 03:51:37;;;;;;;27.02;14.93;;;;;;;14.74;87.64;100824.63;5066378;28;20024;-78
2022/06/08 03:54:09;;;;;;;30.48;15.50;;;;;;;14.76;87.36;100834.28;5073231;28;20491;-78
2022/06/08 03:56:36;;;;;;;23.60;13.95;;;;;;;14.82;86.62;100827.31;5064442;28;20036;-78
2022/06/08 03:59:02;;;;;;;25.08;14.45;;;;;;;14.85;87.21;100825.56;5053219;28;20031;-78
2022/06/08 04:01:28;;;;;;;26.13;14.57;;;;;;;14.89;87.42;100836.97;5053633;28;20025;-78
2022/06/08 04:03:55;;;;;;;25.73;14.55;;;;;;;14.92;87.29;100832.63;5066680;28;20107;-78
2022/06/08 04:06:22;;;;;;;25.67;13.65;;;;;;;14.92;87.18;100819.50;5061146;28;20450;-70
2022/06/08 04:08:48;;;;;;;23.05;13.38;;;;;;;14.96;86.98;100820.38;5071716;28;20021;-70
2022/06/08 04:13:55;;;;;;;21.33;12.80;;;;;;;14.98;87.16;100809.91;5316174;22;20524;-73
2022/06/08 04:16:20;;;;;;;24.70;12.82;;;;;;;14.99;87.79;100817.78;5032310;28;20025;-73
2022/06/08 04:18:46;;;;;;;23.00;12.75;;;;;;;14.98;87.58;100810.78;5027005;28;20025;-73
2022/06/08 04:21:13;;;;;;;22.17;12.45;;;;;;;15.00;88.07;100805.53;5031940;28;20033;-73
2022/06/08 04:23:41;;;;;;;21.08;12.38;;;;;;;15.01;87.63;100802.06;5030311;28;20100;-73
2022/06/08 04:26:07;;;;;;;21.98;12.05;;;;;;;15.01;88.02;100802.06;5026546;28;20030;-73
2022/06/08 04:28:33;;;;;;;22.40;12.57;;;;;;;14.98;88.39;100804.66;5017932;28;20035;-73
2022/06/08 04:30:58;;;;;;;20.80;11.82;;;;;;;14.97;88.47;100805.53;5023297;28;20104;-73
2022/06/08 04:33:24;;;;;;;24.33;12.65;;;;;;;14.99;87.85;100803.78;5033635;28;20026;-73
2022/06/08 04:35:50;;;;;;;20.83;12.00;;;;;;;14.98;87.98;100808.16;5028543;28;20100;-73
2022/06/08 04:38:16;;;;;;;20.30;12.35;;;;;;;15.01;88.43;100799.44;5016094;28;20740;-73
2022/06/08 04:40:42;;;;;;;20.55;12.18;;;;;;;15.01;88.61;100797.66;5017411;28;20030;-73
2022/06/08 04:43:07;;;;;;;21.88;11.85;;;;;;;15.03;88.69;100802.91;5027546;28;20155;-73
2022/06/08 04:45:35;;;;;;;20.05;11.73;;;;;;;15.03;88.47;100797.69;5028795;28;20044;-73
2022/06/08 04:48:02;;;;;;;20.38;11.88;;;;;;;15.04;88.64;100786.31;5023567;28;20057;-73
2022/06/08 04:50:27;;;;;;;19.40;11.10;;;;;;;15.06;89.29;100789.81;5032089;28;20033;-73
2022/06/08 04:52:53;;;;;;;17.80;10.95;;;;;;;15.06;89.35;100784.56;5034579;28;20031;-73
2022/06/08 04:55:18;;;;;;;20.67;11.00;;;;;;;15.07;89.19;100776.69;5028095;28;20033;-73
2022/06/08 04:57:44;;;;;;;18.17;10.63;;;;;;;15.08;89.52;100775.84;5024465;28;20061;-73
2022/06/08 05:00:13;;;;;;;16.15;10.43;;;;;;;15.09;89.62;100780.22;5029012;28;20108;-73
2022/06/08 05:02:45;;;;;;;19.77;11.32;;;;;;;15.12;89.57;100774.97;5030297;28;20481;-73
2022/06/08 05:05:24;;;;;;;20.27;12.10;;;;;;;15.16;89.79;100780.22;5021324;28;20538;-72
2022/06/08 05:07:50;;;;;;;19.30;11.97;;;;;;;15.17;89.66;100772.38;5032185;28;20026;-73
2022/06/08 05:10:17;;;;;;;20.92;13.35;;;;;;;15.18;90.24;100778.47;5015941;28;20021;-73
2022/06/08 05:12:43;;;;;;;19.27;12.57;;;;;;;15.19;90.39;100769.75;5027782;28;20025;-73
2022/06/08 05:15:14;;;;;;;21.58;12.95;;;;;;;15.21;89.35;100773.28;5050649;28;20025;-72
2022/06/08 05:17:39;;;;;;;20.77;12.05;;;;;;;15.22;90.19;100764.50;5049502;28;20029;-73
2022/06/08 05:20:06;;;;;;;20.75;12.35;;;;;;;15.24;89.85;100762.78;5050853;28;20025;-73
2022/06/08 05:22:33;;;;;;;19.80;12.02;;;;;;;15.25;89.93;100761.88;5051377;28;20505;-73
2022/06/08 05:24:59;;;;;;;17.13;11.27;;;;;;;15.27;88.77;100747.03;5049468;28;20100;-73
2022/06/08 05:27:24;;;;;;;20.13;12.88;;;;;;;15.28;90.34;100748.78;5048916;28;20021;-73
2022/06/08 05:29:49;;;;;;;19.13;12.13;;;;;;;15.29;89.50;100750.53;5050618;28;20031;-73
2022/06/08 05:32:15;;;;;;;18.42;11.70;;;;;;;15.30;89.36;100742.66;5049747;28;20052;-73
2022/06/08 05:34:41;;;;;;;18.98;11.13;;;;;;;15.32;89.71;100737.41;5035732;28;20021;-73
2022/06/08 05:37:06;;;;;;;18.13;11.25;;;;;;;15.32;89.88;100740.03;5050424;28;20078;-73
2022/06/08 05:39:32;;;;;;;17.23;10.88;;;;;;;15.33;89.81;100731.28;5050751;28;20028;-73
2022/06/08 05:41:57;;;;;;;19.38;11.02;;;;;;;15.33;89.73;100725.16;5050489;28;20099;-74
2022/06/08 05:44:23;;;;;;;14.73;9.82;;;;;;;15.35;89.74;100728.66;5050972;28;20025;-73
2022/06/08 05:46:49;;;;;;;15.57;10.30;;;;;;;15.35;89.50;100729.56;5049651;28;20025;-71
2022/06/08 05:49:15;;;;;;;15.27;9.30;;;;;;;15.38;89.31;100723.41;5050187;28;20039;-73
2022/06/08 05:51:41;;;;;;;15.93;10.18;;;;;;;15.38;89.27;100719.06;5051163;28;20033;-73
2022/06/08 05:54:06;;;;;;;17.70;9.77;;;;;;;15.42;89.04;100718.16;5050228;28;20488;-73
2022/06/08 05:56:32;;;;;;;15.15;9.57;;;;;;;15.43;89.62;100716.44;5049902;28;20110;-72
2022/06/08 05:58:58;;;;;;;16.08;10.00;;;;;;;15.45;90.16;100710.31;5050515;28;20464;-73
2022/06/08 06:01:23;;;;;;;15.77;9.82;;;;;;;15.50;90.42;100706.78;5049278;28;20029;-73
2022/06/08 06:03:50;;;;;;;16.17;8.48;;;;;;;15.54;89.56;100705.94;5049949;28;20040;-74
2022/06/08 06:06:16;;;;;;;15.98;9.80;;;;;;;15.56;89.88;100698.94;5047905;28;20028;-73
2022/06/08 06:08:41;;;;;;;16.83;9.52;;;;;;;15.57;90.02;100698.94;5050211;28;20029;-73
2022/06/08 06:11:06;;;;;;;16.23;8.65;;;;;;;15.60;88.73;100698.06;5050784;28;20115;-73
2022/06/08 06:13:32;;;;;;;12.38;8.23;;;;;;;15.62;88.55;100699.81;5050533;28;20053;-73
2022/06/08 06:15:57;;;;;;;14.38;8.50;;;;;;;15.63;88.92;100698.06;5049229;28;20032;-73
2022/06/08 06:18:22;;;;;;;12.77;8.40;;;;;;;15.65;88.88;100706.81;5048944;28;20047;-74
2022/06/08 06:20:49;;;;;;;13.52;8.40;;;;;;;15.67;89.08;100704.19;5049779;28;20118;-73
2022/06/08 06:23:14;;;;;;;15.10;8.20;;;;;;;15.68;88.65;100706.81;5049911;28;20396;-74
2022/06/08 06:25:40;;;;;;;14.20;8.38;;;;;;;15.71;88.36;100708.56;5049864;28;20041;-73
2022/06/08 06:28:05;;;;;;;11.18;7.22;;;;;;;15.71;88.78;100701.56;5049606;28;20480;-74
2022/06/08 06:30:31;;;;;;;13.50;8.23;;;;;;;15.73;88.35;100705.06;5050170;28;20025;-73
2022/06/08 06:32:56;;;;;;;11.80;7.63;;;;;;;15.74;87.82;100709.47;5050579;28;20568;-73
2022/06/08 06:35:25;;;;;;;11.55;7.40;;;;;;;15.74;87.95;100714.72;5048750;28;20044;-73
2022/06/08 06:37:52;;;;;;;15.63;8.02;;;;;;;15.74;87.67;100706.84;5048849;28;20024;-73
2022/06/08 06:40:18;;;;;;;11.18;7.45;;;;;;;15.74;88.30;100701.59;5048254;28;20567;-73
2022/06/08 06:42:44;;;;;;;11.80;7.45;;;;;;;15.74;88.77;100709.47;5048158;28;20524;-73
2022/06/08 06:45:10;;;;;;;12.43;7.57;;;;;;;15.77;88.41;100706.84;5039355;28;20051;-73
2022/06/08 06:47:36;;;;;;;12.10;7.43;;;;;;;15.80;88.36;100701.59;5049738;28;20043;-73
2022/06/08 06:50:03;;;;;;;12.55;7.88;;;;;;;15.83;88.69;100703.38;5049290;28;20036;-73
2022/06/08 06:52:28;;;;;;;14.60;7.82;;;;;;;15.89;89.28;100700.72;5049741;28;20427;-73
2022/06/08 06:54:54;;;;;;;12.73;7.70;;;;;;;15.94;89.75;100700.72;5048277;28;20036;-73
2022/06/08 06:57:19;;;;;;;12.23;7.38;;;;;;;15.99;89.15;100699.84;5048568;28;20028;-73
2022/06/08 06:59:45;;;;;;;12.43;7.65;;;;;;;16.07;90.07;100699.81;5048960;28;20024;-73
2022/06/08 07:02:15;;;;;;;15.18;7.47;;;;;;;16.16;88.81;100698.91;5049171;28;20515;-73
2022/06/08 07:04:41;;;;;;;13.35;7.55;;;;;;;16.26;88.99;100691.91;5048255;28;20047;-73
2022/06/08 07:07:06;;;;;;;10.85;7.70;;;;;;;16.35;89.62;100694.50;5048735;28;20437;-73
2022/06/08 07:09:32;;;;;;;12.15;6.65;;;;;;;16.39;89.14;100683.09;5048471;28;20044;-73
2022/06/08 07:11:58;;;;;;;12.07;7.47;;;;;;;16.46;89.33;100686.59;5049436;28;20029;-73
2022/06/08 07:14:23;;;;;;;15.30;7.15;;;;;;;16.54;88.21;100678.66;5048016;28;20041;-73
2022/06/08 07:16:49;;;;;;;12.38;6.47;;;;;;;16.60;87.82;100686.56;5049435;28;20021;-74
2022/06/08 07:19:15;;;;;;;11.40;6.72;;;;;;;16.65;87.13;100687.41;5049062;28;20403;-73
2022/06/08 07:21:41;;;;;;;10.25;6.55;;;;;;;16.71;87.07;100687.34;5049566;28;20040;-73
2022/06/08 07:24:07;;;;;;;11.32;6.93;;;;;;;16.77;88.09;100682.09;5048319;28;20082;-73
2022/06/08 07:26:33;;;;;;;14.23;6.55;;;;;;;16.84;87.57;100682.91;5040132;28;20021;-73
2022/06/08 07:28:59;;;;;;;13.57;6.35;;;;;;;16.89;86.58;100675.94;5047927;28;20029;-74
2022/06/08 07:31:25;;;;;;;11.90;6.00;;;;;;;16.92;85.81;100675.91;5048198;28;20100;-73
2022/06/08 07:33:50;;;;;;;12.43;5.88;;;;;;;16.92;84.11;100664.50;5049104;28;20463;-74
2022/06/08 07:36:17;;;;;;;9.57;5.93;;;;;;;16.92;84.57;100670.63;5048497;28;20025;-74
2022/06/08 07:38:43;;;;;;;12.80;5.53;;;;;;;16.95;84.66;100659.22;5047899;28;20053;-73
2022/06/08 07:41:08;;;;;;;12.05;5.85;;;;;;;17.02;84.78;100660.94;5048028;28;20527;-74
2022/06/08 07:43:34;;;;;;;16.63;6.38;;;;;;;17.09;85.89;100662.66;5048080;28;20029;-74
2022/06/08 07:46:00;;;;;;;10.43;5.93;;;;;;;17.13;84.74;100659.13;5047997;28;20019;-74
2022/06/08 07:51:10;;;;;;;11.20;6.03;;;;;;;17.24;85.63;100664.31;5046770;28;20460;-72
2022/06/08 07:53:35;;;;;;;12.48;6.03;;;;;;;17.29;84.90;100662.53;5033169;28;20096;-72
2022/06/08 07:56:00;;;;;;;12.32;6.10;;;;;;;17.30;84.13;100661.63;5051932;28;20017;-72
2022/06/08 07:58:26;;;;;;;14.65;5.57;;;;;;;17.32;84.49;100664.25;5050242;28;20036;-72
2022/06/08 08:00:53;;;;;;;15.40;6.63;;;;;;;17.35;83.22;100664.22;5031865;28;20032;-74
2022/06/08 08:03:19;;;;;;;11.75;6.03;;;;;;;17.38;83.17;100672.13;5048244;28;20119;-74
2022/06/08 08:05:46;;;;;;;11.32;5.60;;;;;;;17.39;83.75;100665.94;5050391;28;20017;-72
2022/06/08 08:08:13;;;;;;;10.68;5.57;;;;;;;17.41;83.90;100674.72;5051157;28;20037;-73
2022/06/08 08:10:39;;;;;;;15.85;6.25;;;;;;;17.41;82.42;100672.09;5051292;28;20060;-73
2022/06/08 08:13:07;;;;;;;11.93;5.82;;;;;;;17.41;83.07;100664.19;5034542;28;20088;-73
2022/06/08 08:15:32;;;;;;;12.93;5.60;;;;;;;17.40;82.23;100672.97;5049540;28;20021;-73
2022/06/08 08:17:57;;;;;;;10.07;5.35;;;;;;;17.42;81.97;100671.19;5049748;28;20043;-73
2022/06/08 08:20:24;;;;;;;13.00;6.05;;;;;;;17.38;81.46;100661.59;5051372;28;20288;-73
2022/06/08 08:22:50;;;;;;;12.38;6.07;;;;;;;17.38;80.89;100667.72;5046877;28;20053;-73
2022/06/08 08:25:17;;;;;;;12.68;5.72;;;;;;;17.37;81.49;100663.31;5051359;28;20472;-73
2022/06/08 08:27:44;;;;;;;14.63;5.68;;;;;;;17.37;81.32;100658.06;5052224;28;20021;-72
2022/06/08 08:30:12;;;;;;;12.82;5.57;;;;;;;17.35;81.05;100666.84;5050901;28;20021;-73
2022/06/08 08:32:38;;;;;;;12.55;6.13;;;;;;;17.32;80.90;100675.66;5050731;28;20083;-73
2022/06/08 08:35:03;;;;;;;15.45;6.95;;;;;;;17.30;80.45;100671.28;5050227;28;20037;-73
2022/06/08 08:37:30;;;;;;;20.67;6.88;;;;;;;17.27;80.11;100671.31;5030362;28;20116;-73
2022/06/08 08:39:55;;;;;;;12.93;6.18;;;;;;;17.25;80.96;100668.69;5050204;28;20484;-73
2022/06/08 08:42:21;;;;;;;13.82;6.53;;;;;;;17.25;81.07;100667.81;5050180;28;20033;-73
2022/06/08 08:44:50;;;;;;;12.18;5.78;;;;;;;17.25;81.41;100668.69;5050859;28;20024;-73
2022/06/08 08:47:35;;;;;;;13.25;6.18;;;;;;;17.25;81.86;100663.44;5050008;28;20025;-72
2022/06/08 08:50:21;;;;;;;10.65;6.07;;;;;;;17.26;81.69;100675.69;5048502;28;20040;-73
2022/06/08 08:52:52;;;;;;;13.73;6.20;;;;;;;17.26;81.96;100665.16;5045922;28;20495;-73
2022/06/08 08:55:46;;;;;;;10.73;6.30;;;;;;;17.27;81.39;100664.28;5049745;28;20032;-73
2022/06/08 08:58:15;;;;;;;12.30;6.30;;;;;;;17.28;81.57;100665.13;5048997;28;20484;-73
2022/06/08 09:00:49;;;;;;;13.55;6.30;;;;;;;17.30;81.33;100673.94;5046079;28;20024;-73
2022/06/08 09:03:21;;;;;;;17.63;7.18;;;;;;;17.30;81.64;100663.38;5049800;28;20028;-72
2022/06/08 09:05:49;;;;;;;14.85;5.50;;;;;;;17.29;81.08;100675.69;5049093;28;20028;-73
2022/06/08 09:08:16;;;;;;;12.93;6.85;;;;;;;17.31;81.78;100675.69;5050823;28;20025;-73
2022/06/08 09:10:43;;;;;;;17.73;6.50;;;;;;;17.33;82.21;100673.91;5050542;28;20021;-73
2022/06/08 09:13:51;;;;;;;15.65;5.75;;;;;;;17.35;81.22;100677.38;5029636;28;20770;-73
2022/06/08 09:16:28;;;;;;;12.90;6.15;;;;;;;17.34;81.46;100675.66;5024665;28;21490;-73
2022/06/08 09:18:54;;;;;;;13.77;6.00;;;;;;;17.33;80.99;100673.91;5044625;28;20558;-70
2022/06/08 09:21:22;;;;;;;14.02;6.00;;;;;;;17.30;80.65;100677.41;5048768;28;20025;-69
2022/06/08 09:23:50;;;;;;;15.52;6.15;;;;;;;17.28;80.40;100670.41;5049499;28;20023;-69
2022/06/08 09:26:31;;;;;;;13.77;6.18;;;;;;;17.27;81.26;100669.53;5048589;28;20511;-69
2022/06/08 09:29:13;;;;;;;10.65;5.78;;;;;;;17.27;81.26;100671.31;5050950;28;20112;-69
2022/06/08 09:31:39;;;;;;;11.80;5.95;;;;;;;17.27;82.00;100671.31;5051632;28;20036;-69
2022/06/08 09:34:07;;;;;;;12.68;6.15;;;;;;;17.24;80.95;100672.19;5049777;28;20052;-69
2022/06/08 09:36:32;;;;;;;12.68;5.95;;;;;;;17.23;81.78;100675.72;5050417;28;20493;-69
2022/06/08 09:38:58;;;;;;;11.18;5.88;;;;;;;17.20;81.16;100676.59;5050482;28;20059;-69
2022/06/08 09:41:34;;;;;;;12.82;6.07;;;;;;;17.19;83.00;100674.88;5049067;28;20166;-69
2022/06/08 09:44:09;;;;;;;13.32;5.95;;;;;;;17.19;81.86;100673.97;5046082;28;20079;-69
2022/06/08 09:52:53;;;;;;;13.60;5.25;;;;;;;17.16;82.79;100680.16;5037218;28;20059;-69
2022/06/08 09:55:39;;;;;;;13.93;5.78;;;;;;;17.16;83.35;100680.16;5050031;28;20396;-69
2022/06/08 09:58:08;;;;;;;11.98;5.22;;;;;;;17.13;82.70;100680.19;5039841;28;20033;-69
2022/06/08 10:00:44;;;;;;;10.32;4.70;;;;;;;17.12;82.48;100683.69;5048820;28;20074;-69
2022/06/08 10:03:20;;;;;;;9.52;4.65;;;;;;;17.10;82.04;100680.19;5050106;28;20039;-70
2022/06/08 10:05:56;;;;;;;12.00;4.60;;;;;;;17.07;81.23;100680.19;5049453;28;20028;-69
2022/06/08 10:08:36;;;;;;;13.80;5.20;;;;;;;17.06;82.55;100678.47;5048498;28;20100;-69
2022/06/08 10:13:49;;;;;;;12.57;4.65;;;;;;;17.01;83.68;100681.09;5374647;23;20063;-67
2022/06/08 10:16:22;;;;;;;13.20;5.10;;;;;;;16.99;84.69;100675.00;5368764;22;20057;-67
2022/06/08 10:18:56;;;;;;;14.02;5.22;;;;;;;17.01;84.89;100677.59;5037819;28;20021;-67
2022/06/08 10:21:48;;;;;;;15.05;5.45;;;;;;;17.03;84.44;100679.34;5032559;28;20021;-67
2022/06/08 10:24:17;;;;;;;13.45;5.60;;;;;;;17.00;84.94;100683.75;5032521;28;20064;-67
2022/06/08 10:26:57;;;;;;;13.90;5.55;;;;;;;17.00;84.21;100678.47;5037801;28;20028;-67
2022/06/08 10:29:43;;;;;;;13.05;5.60;;;;;;;16.95;85.42;100682.91;5028838;28;20599;-67
2022/06/08 10:32:11;;;;;;;11.75;5.63;;;;;;;16.92;86.30;100688.19;5029681;28;20041;-81
2022/06/08 10:34:37;;;;;;;13.70;6.00;;;;;;;16.90;83.81;100679.41;4998627;28;20034;-81
2022/06/08 10:37:14;;;;;;;12.20;5.85;;;;;;;16.86;85.85;100689.06;5010471;28;20040;-81
2022/06/08 10:39:41;;;;;;;15.82;6.10;;;;;;;16.80;86.21;100689.97;5011196;28;20119;-81
2022/06/08 10:42:40;;;;;;;14.13;6.20;;;;;;;16.81;86.59;100686.44;5029489;28;20036;-81
2022/06/08 10:45:23;;;;;;;12.85;5.82;;;;;;;16.80;86.49;100682.06;5028918;28;20026;-82
2022/06/08 10:48:04;;;;;;;13.10;5.90;;;;;;;16.75;86.17;100681.22;5031508;28;20025;-82
2022/06/08 10:50:34;;;;;;;13.55;5.75;;;;;;;16.72;85.44;100678.59;5006726;28;20064;-82
2022/06/08 10:56:23;;;;;;;18.15;6.55;;;;;;;16.74;85.69;100675.97;5028904;28;19936;-83
2022/06/08 10:59:13;;;;;;;15.57;5.80;;;;;;;16.71;86.13;100676.84;5028724;28;20084;-82
2022/06/08 11:01:50;;;;;;;18.88;6.25;;;;;;;16.70;87.07;100680.38;5017139;28;20385;-81
2022/06/08 11:04:48;;;;;;;12.63;5.53;;;;;;;16.69;85.83;100678.63;5029613;28;20145;-84
2022/06/08 11:07:18;;;;;;;15.15;4.95;;;;;;;16.63;84.91;100673.38;4991951;28;20053;-82
2022/06/08 11:09:50;;;;;;;11.55;4.47;;;;;;;16.60;84.78;100668.16;5011088;28;20026;-82
2022/06/08 11:12:39;;;;;;;12.00;4.93;;;;;;;16.63;85.53;100663.72;5028677;28;20033;-82
2022/06/08 11:15:29;;;;;;;14.50;4.77;;;;;;;16.67;85.97;100665.47;5014169;28;20067;-83
2022/06/08 11:18:01;;;;;;;11.15;4.70;;;;;;;16.66;86.88;100660.22;5018612;28;20050;-81
2022/06/08 11:20:43;;;;;;;12.38;4.60;;;;;;;16.67;86.09;100661.97;5014458;28;20029;-81
2022/06/08 11:23:18;;;;;;;14.93;4.60;;;;;;;16.66;86.04;100647.06;5034794;28;20174;-82
2022/06/08 11:26:11;;;;;;;10.60;4.50;;;;;;;16.64;85.36;100654.06;5041368;28;20396;-81
2022/06/08 11:28:45;;;;;;;12.23;4.50;;;;;;;16.62;86.23;100646.19;5005936;28;20095;-81
2022/06/08 11:31:47;;;;;;;10.07;4.35;;;;;;;16.63;85.35;100642.69;5034642;28;20025;-82
2022/06/08 11:34:18;;;;;;;11.43;5.15;;;;;;;16.59;85.87;100640.94;5042597;28;20443;-82
2022/06/08 11:37:02;;;;;;;11.25;4.72;;;;;;;16.51;85.36;100638.34;5023204;28;20057;-83
2022/06/08 11:39:45;;;;;;;13.50;4.60;;;;;;;16.50;86.35;100631.34;5020281;28;20480;-82
2022/06/08 11:42:13;;;;;;;9.13;3.85;;;;;;;16.47;86.68;100627.88;5031462;28;20497;-82
2022/06/08 11:44:47;;;;;;;12.98;4.53;;;;;;;16.45;85.47;100627.88;5030915;28;20022;-83
2022/06/08 11:47:18;;;;;;;10.50;4.55;;;;;;;16.44;86.68;100631.38;5033320;28;20101;-81
2022/06/08 11:49:54;;;;;;;10.85;4.40;;;;;;;16.41;85.96;100620.88;5017117;28;20103;-82
2022/06/08 11:52:32;;;;;;;9.98;4.15;;;;;;;16.38;86.75;100618.25;5026235;28;20436;-82